Time;durP1;ratioP1;P1;durP2;ratioP2;P2;SDS_P1;SDS_P2;PMS_P1;PMS_P2;Temp;Humidity;BMP_temperature;BMP_pressure;BME280_temperature;BME280_humidity;BME280_pressure;Samples;Min_cycle;Max_cycle;Signal;HPM_P1;HPM_P2
2023/03/19 00:00:12;;;;;;;12.57;9.63;;;9.00;76.10;;;;;;5030042;28;20448;-66
2023/03/19 00:02:39;;;;;;;14.77;10.50;;;9.00;76.50;;;;;;5028892;28;20876;-66
2023/03/19 00:05:07;;;;;;;14.53;10.20;;;8.90;76.60;;;;;;5029857;28;21052;-66
2023/03/19 00:07:35;;;;;;;14.90;10.00;;;8.80;77.40;;;;;;5028595;28;20467;-65
2023/03/19 00:10:02;;;;;;;13.67;9.83;;;8.60;78.00;;;;;;5029503;28;20463;-65
2023/03/19 00:12:28;;;;;;;12.03;9.90;;;8.60;78.70;;;;;;5028806;28;20476;-66
2023/03/19 00:14:55;;;;;;;12.80;9.97;;;8.70;78.40;;;;;;5028957;28;20534;-64
2023/03/19 00:17:22;;;;;;;13.50;11.90;;;8.90;77.10;;;;;;5029768;28;20494;-66
2023/03/19 00:19:49;;;;;;;14.23;10.70;;;9.00;76.60;;;;;;5028705;28;20826;-65
2023/03/19 00:22:16;;;;;;;11.47;8.93;;;9.00;76.10;;;;;;5029452;28;20532;-66
2023/03/19 00:24:44;;;;;;;11.87;9.30;;;9.00;76.20;;;;;;5027692;28;20492;-66
2023/03/19 00:27:11;;;;;;;12.63;9.43;;;8.90;76.20;;;;;;5027418;28;20493;-65
2023/03/19 00:29:38;;;;;;;12.23;9.23;;;8.90;76.50;;;;;;5014876;28;20487;-66
2023/03/19 00:32:06;;;;;;;11.97;9.47;;;8.90;76.60;;;;;;5019763;28;20464;-66
2023/03/19 00:34:32;;;;;;;12.03;9.33;;;8.80;77.00;;;;;;5012057;28;20510;-66
2023/03/19 00:36:59;;;;;;;12.93;10.20;;;8.80;78.20;;;;;;5014908;28;20473;-66
2023/03/19 00:39:26;;;;;;;16.40;12.47;;;8.70;78.70;;;;;;5028096;28;20452;-66
2023/03/19 00:41:54;;;;;;;19.33;16.60;;;8.70;79.40;;;;;;5027155;28;20459;-66
2023/03/19 00:44:21;;;;;;;26.97;22.70;;;8.70;79.20;;;;;;5007833;28;20471;-65
2023/03/19 00:46:48;;;;;;;17.20;15.23;;;8.70;80.60;;;;;;5011498;28;20461;-66
2023/03/19 00:49:14;;;;;;;17.17;13.60;;;8.60;81.60;;;;;;5009401;28;20990;-65
2023/03/19 00:51:42;;;;;;;15.90;12.83;;;8.60;82.00;;;;;;5013704;28;20466;-65
2023/03/19 00:54:10;;;;;;;14.40;12.73;;;8.60;82.00;;;;;;5010530;28;20479;-67
2023/03/19 00:56:37;;;;;;;14.33;12.80;;;8.70;81.70;;;;;;5007469;28;20473;-68
2023/03/19 00:59:06;;;;;;;16.60;11.93;;;8.60;81.70;;;;;;5009090;28;20506;-66
2023/03/19 01:01:33;;;;;;;13.97;12.37;;;8.60;82.00;;;;;;5009771;28;20445;-66
2023/03/19 01:04:00;;;;;;;13.97;12.53;;;8.60;82.10;;;;;;5009957;28;20869;-66
2023/03/19 01:06:27;;;;;;;14.97;11.77;;;8.70;82.10;;;;;;5010233;28;20483;-66
2023/03/19 01:08:53;;;;;;;13.73;11.70;;;8.80;81.20;;;;;;5010755;28;20535;-66
2023/03/19 01:11:20;;;;;;;15.33;12.43;;;8.90;80.30;;;;;;5010551;28;20455;-65
2023/03/19 01:13:47;;;;;;;14.90;11.37;;;8.80;80.40;;;;;;5010010;28;20484;-65
2023/03/19 01:16:15;;;;;;;13.53;11.30;;;8.80;81.20;;;;;;5010442;28;20457;-65
2023/03/19 01:18:42;;;;;;;14.40;10.20;;;8.90;81.60;;;;;;5010050;28;20447;-66
2023/03/19 01:21:09;;;;;;;11.83;10.23;;;8.90;81.50;;;;;;5010309;28;20939;-67
2023/03/19 01:23:36;;;;;;;9.80;8.80;;;8.90;81.10;;;;;;5009782;28;20445;-65
2023/03/19 01:26:03;;;;;;;12.43;9.27;;;8.90;81.10;;;;;;5010212;28;20475;-66
2023/03/19 01:28:31;;;;;;;14.53;9.40;;;8.90;80.30;;;;;;5010306;28;20460;-63
2023/03/19 01:31:02;;;;;;;12.80;9.63;;;8.80;79.50;;;;;;5009793;28;20448;-66
2023/03/19 01:33:30;;;;;;;16.30;9.67;;;8.80;79.70;;;;;;5009621;28;21198;-66
2023/03/19 01:35:58;;;;;;;9.80;8.80;;;9.00;79.00;;;;;;5009726;28;20449;-65
2023/03/19 01:38:25;;;;;;;11.17;9.70;;;9.10;78.50;;;;;;5010061;28;20470;-66
2023/03/19 01:40:52;;;;;;;10.27;9.23;;;9.10;78.60;;;;;;5009732;28;20459;-63
2023/03/19 01:43:21;;;;;;;10.60;9.50;;;9.00;80.20;;;;;;5009729;28;20517;-66
2023/03/19 01:45:50;;;;;;;11.27;9.60;;;9.10;81.00;;;;;;5009943;28;20475;-66
2023/03/19 01:48:24;;;;;;;13.67;9.27;;;9.00;82.00;;;;;;5009556;28;20485;-65
2023/03/19 01:50:54;;;;;;;11.10;9.87;;;9.00;83.10;;;;;;5010110;28;20449;-66
2023/03/19 01:53:25;;;;;;;13.93;9.50;;;8.90;82.90;;;;;;5009319;28;20485;-66
2023/03/19 01:55:55;;;;;;;13.93;11.10;;;8.90;83.60;;;;;;5009805;28;20448;-65
2023/03/19 01:58:22;;;;;;;12.67;9.67;;;9.00;81.00;;;;;;5009206;28;21031;-65
2023/03/19 02:00:48;;;;;;;11.13;9.53;;;9.00;82.00;;;;;;5009738;28;20454;-66
2023/03/19 02:03:16;;;;;;;15.67;11.33;;;8.80;83.00;;;;;;5010797;28;21010;-66
2023/03/19 02:05:45;;;;;;;12.57;10.73;;;8.70;82.50;;;;;;5013744;28;20460;-66
2023/03/19 02:08:16;;;;;;;13.30;9.70;;;8.80;82.50;;;;;;5013462;28;20481;-66
2023/03/19 02:10:44;;;;;;;13.93;10.00;;;8.90;82.70;;;;;;5013185;28;20449;-66
2023/03/19 02:13:11;;;;;;;14.80;10.43;;;8.90;81.60;;;;;;5013211;28;20562;-66
2023/03/19 02:15:39;;;;;;;17.60;10.37;;;8.80;82.00;;;;;;5013503;28;20458;-66
2023/03/19 02:18:07;;;;;;;14.47;9.73;;;8.90;83.30;;;;;;5013493;28;20560;-65
2023/03/19 02:20:41;;;;;;;12.53;9.80;;;8.90;82.40;;;;;;5013237;28;20458;-66
2023/03/19 02:23:17;;;;;;;8.93;7.90;;;9.00;81.30;;;;;;5012912;28;20447;-65
2023/03/19 02:25:56;;;;;;;8.80;7.90;;;9.20;77.90;;;;;;5013268;28;20446;-66
2023/03/19 02:28:24;;;;;;;8.07;5.53;;;9.50;76.70;;;;;;5013120;28;20848;-65
2023/03/19 02:30:52;;;;;;;6.70;5.03;;;9.70;72.50;;;;;;5013309;28;20455;-66
2023/03/19 02:33:20;;;;;;;5.57;4.77;;;10.00;70.40;;;;;;5012429;28;20480;-65
2023/03/19 02:35:50;;;;;;;5.80;4.50;;;10.10;69.80;;;;;;5013099;28;20457;-66
2023/03/19 02:38:17;;;;;;;5.53;3.83;;;10.20;71.10;;;;;;5013339;28;20833;-66
2023/03/19 02:40:48;;;;;;;8.10;4.90;;;10.20;72.40;;;;;;5012682;28;20490;-66
2023/03/19 02:43:17;;;;;;;9.80;7.80;;;10.10;75.70;;;;;;5012657;28;20444;-66
2023/03/19 02:45:44;;;;;;;8.80;7.17;;;9.90;80.00;;;;;;5012787;28;20451;-66
2023/03/19 02:48:10;;;;;;;7.20;4.97;;;9.70;82.40;;;;;;5012111;28;20469;-67
2023/03/19 02:50:37;;;;;;;6.57;4.73;;;9.60;85.40;;;;;;5011317;28;20448;-66
2023/03/19 02:53:04;;;;;;;5.50;4.60;;;9.60;87.50;;;;;;5011793;28;20444;-64
2023/03/19 02:55:31;;;;;;;10.00;8.07;;;9.40;89.10;;;;;;5011803;28;20459;-66
2023/03/19 02:57:57;;;;;;;10.77;8.90;;;9.30;90.80;;;;;;5012551;28;20471;-66
2023/03/19 03:00:26;;;;;;;10.00;8.87;;;9.20;90.60;;;;;;5012248;28;20455;-66
2023/03/19 03:02:55;;;;;;;10.00;9.03;;;9.00;90.70;;;;;;5011434;28;20502;-67
2023/03/19 03:05:21;;;;;;;9.50;8.23;;;9.00;91.40;;;;;;5011292;28;20450;-65
2023/03/19 03:07:48;;;;;;;8.27;7.00;;;9.00;91.50;;;;;;5011923;28;20467;-66
2023/03/19 03:10:15;;;;;;;8.63;7.40;;;8.90;91.70;;;;;;5012454;28;20444;-66
2023/03/19 03:12:42;;;;;;;10.47;8.10;;;9.00;91.40;;;;;;5010937;28;20444;-66
2023/03/19 03:15:10;;;;;;;11.90;8.73;;;9.10;91.60;;;;;;5011224;28;20492;-66
2023/03/19 03:17:39;;;;;;;9.63;8.63;;;9.10;91.00;;;;;;5011559;28;20465;-66
2023/03/19 03:20:08;;;;;;;8.40;7.50;;;9.00;91.40;;;;;;5011652;28;20522;-66
2023/03/19 03:22:35;;;;;;;9.40;8.50;;;9.00;91.70;;;;;;5010802;28;20547;-66
2023/03/19 03:25:02;;;;;;;11.90;10.17;;;8.90;92.20;;;;;;5011797;28;20448;-66
2023/03/19 03:27:28;;;;;;;14.43;9.50;;;8.90;92.40;;;;;;5011934;28;20472;-66
2023/03/19 03:29:55;;;;;;;10.87;9.77;;;8.80;92.30;;;;;;5011272;28;20484;-66
2023/03/19 03:32:22;;;;;;;9.00;8.20;;;8.90;92.00;;;;;;5011254;28;20822;-64
2023/03/19 03:34:50;;;;;;;9.87;8.47;;;8.90;91.10;;;;;;5011936;28;20495;-66
2023/03/19 03:37:18;;;;;;;8.83;8.00;;;8.80;91.20;;;;;;5011932;28;20463;-66
2023/03/19 03:39:45;;;;;;;9.37;8.47;;;8.70;91.80;;;;;;5011850;28;20452;-66
2023/03/19 03:42:12;;;;;;;8.73;7.93;;;8.60;92.20;;;;;;5011279;28;20462;-66
2023/03/19 03:44:38;;;;;;;9.80;8.27;;;8.60;92.60;;;;;;5011290;28;20471;-66
2023/03/19 03:47:06;;;;;;;8.67;7.70;;;8.60;92.90;;;;;;5010947;28;20492;-66
2023/03/19 03:49:32;;;;;;;8.67;7.87;;;8.50;93.10;;;;;;5008808;28;20452;-66
2023/03/19 03:52:01;;;;;;;9.60;8.60;;;8.50;93.30;;;;;;5010703;28;20927;-65
2023/03/19 03:54:27;;;;;;;10.80;9.00;;;8.50;93.50;;;;;;5009364;28;20483;-67
2023/03/19 03:56:54;;;;;;;11.43;10.23;;;8.40;93.60;;;;;;5010687;28;20482;-66
2023/03/19 03:59:21;;;;;;;13.77;9.77;;;8.50;93.80;;;;;;5011169;28;20967;-65
2023/03/19 04:01:48;;;;;;;9.33;8.43;;;8.50;93.60;;;;;;5011210;28;20494;-66
2023/03/19 04:04:14;;;;;;;9.60;8.07;;;8.50;93.80;;;;;;5011237;28;20474;-66
2023/03/19 04:06:41;;;;;;;8.50;7.60;;;8.60;93.80;;;;;;5010919;28;20845;-66
2023/03/19 04:09:09;;;;;;;9.30;8.37;;;8.60;93.90;;;;;;5010349;28;20474;-66
2023/03/19 04:11:37;;;;;;;9.27;8.00;;;8.70;93.60;;;;;;5009415;28;20445;-66
2023/03/19 04:14:04;;;;;;;9.13;7.83;;;8.70;93.40;;;;;;5009445;28;20567;-66
2023/03/19 04:16:31;;;;;;;10.10;7.90;;;8.60;93.50;;;;;;5009764;28;20511;-63
2023/03/19 04:18:58;;;;;;;8.33;7.60;;;8.60;93.80;;;;;;5011115;28;20456;-66
2023/03/19 04:21:25;;;;;;;8.50;7.70;;;8.60;93.90;;;;;;5012649;28;20461;-66
2023/03/19 04:23:52;;;;;;;10.17;9.17;;;8.60;94.00;;;;;;5010651;28;20448;-66
2023/03/19 04:26:20;;;;;;;9.20;8.30;;;8.60;94.10;;;;;;5010021;28;20951;-65
2023/03/19 04:28:47;;;;;;;9.47;8.50;;;8.60;94.10;;;;;;5010717;28;20457;-66
2023/03/19 04:31:14;;;;;;;8.80;8.00;;;8.50;94.10;;;;;;5010939;28;20459;-66
2023/03/19 04:33:41;;;;;;;10.47;8.33;;;8.60;94.30;;;;;;5009129;28;20456;-66
2023/03/19 04:36:08;;;;;;;8.77;7.87;;;8.50;94.20;;;;;;5009097;28;20445;-66
2023/03/19 04:38:35;;;;;;;9.17;8.27;;;8.50;94.30;;;;;;5010004;28;20467;-66
2023/03/19 04:41:03;;;;;;;9.37;8.47;;;8.50;94.40;;;;;;5009965;28;20552;-66
2023/03/19 04:43:31;;;;;;;9.73;8.73;;;8.60;94.50;;;;;;5010304;28;20461;-66
2023/03/19 04:45:58;;;;;;;8.60;7.90;;;8.60;94.40;;;;;;5010659;28;20488;-66
2023/03/19 04:48:25;;;;;;;12.50;8.97;;;8.60;94.20;;;;;;5009062;28;21165;-66
2023/03/19 04:50:55;;;;;;;9.53;8.73;;;8.60;94.10;;;;;;5009576;28;20858;-66
2023/03/19 04:53:23;;;;;;;8.93;8.03;;;8.60;93.60;;;;;;5008797;28;20457;-66
2023/03/19 04:55:50;;;;;;;8.00;7.30;;;8.60;93.70;;;;;;5009331;28;20570;-66
2023/03/19 04:58:17;;;;;;;8.17;7.33;;;8.60;93.70;;;;;;5010033;28;20483;-66
2023/03/19 05:00:46;;;;;;;8.47;7.60;;;8.60;93.70;;;;;;5009934;28;20874;-65
2023/03/19 05:03:13;;;;;;;7.20;6.60;;;8.60;93.80;;;;;;5009400;28;20540;-65
2023/03/19 05:05:40;;;;;;;10.90;8.80;;;8.60;93.80;;;;;;5009319;28;20947;-66
2023/03/19 05:08:07;;;;;;;9.30;8.50;;;8.60;93.80;;;;;;5009765;28;20473;-66
2023/03/19 05:10:34;;;;;;;8.17;7.30;;;8.70;93.80;;;;;;5009382;28;20463;-66
2023/03/19 05:13:01;;;;;;;9.80;7.67;;;8.70;93.40;;;;;;5009141;28;20455;-67
2023/03/19 05:15:28;;;;;;;8.77;7.77;;;8.70;92.90;;;;;;5009783;28;20485;-67
2023/03/19 05:17:56;;;;;;;8.93;8.13;;;8.70;92.70;;;;;;5008846;28;20477;-65
2023/03/19 05:20:24;;;;;;;9.43;8.40;;;8.70;93.00;;;;;;5009719;28;20511;-66
2023/03/19 05:22:52;;;;;;;8.57;7.87;;;8.70;93.20;;;;;;5008223;28;20461;-66
2023/03/19 05:25:19;;;;;;;8.87;7.97;;;8.80;93.40;;;;;;5009631;28;20460;-66
2023/03/19 05:27:46;;;;;;;8.90;7.90;;;8.80;93.40;;;;;;5009340;28;20514;-65
2023/03/19 05:30:13;;;;;;;9.70;8.80;;;8.80;93.30;;;;;;5010022;28;20678;-67
2023/03/19 05:32:40;;;;;;;8.43;7.63;;;8.80;93.30;;;;;;5009645;28;20465;-66
2023/03/19 05:35:09;;;;;;;8.50;7.73;;;8.80;93.30;;;;;;5009822;28;20488;-66
2023/03/19 05:37:35;;;;;;;8.87;7.93;;;8.80;93.40;;;;;;5008787;28;20480;-66
2023/03/19 05:40:03;;;;;;;9.53;7.90;;;8.80;93.60;;;;;;5009716;28;20459;-66
2023/03/19 05:42:29;;;;;;;8.60;7.17;;;8.80;93.70;;;;;;5009391;28;20471;-66
2023/03/19 05:44:56;;;;;;;9.70;8.50;;;8.90;93.20;;;;;;5009909;28;20455;-66
2023/03/19 05:47:23;;;;;;;8.40;7.60;;;9.00;92.70;;;;;;5009518;28;20534;-66
2023/03/19 05:49:50;;;;;;;8.47;7.67;;;8.90;92.90;;;;;;5009335;28;20451;-66
2023/03/19 05:52:18;;;;;;;8.53;7.63;;;9.00;92.80;;;;;;5009235;28;20840;-66
2023/03/19 05:54:48;;;;;;;9.47;7.87;;;9.00;93.20;;;;;;5008618;28;21022;-67
2023/03/19 05:57:15;;;;;;;9.00;7.37;;;9.00;93.10;;;;;;5008639;28;20618;-66
2023/03/19 05:59:42;;;;;;;6.90;6.20;;;9.10;92.90;;;;;;5008771;28;20747;-66
2023/03/19 06:02:09;;;;;;;6.63;6.03;;;9.00;92.70;;;;;;5009434;28;20475;-67
2023/03/19 06:04:36;;;;;;;6.87;6.27;;;9.00;92.50;;;;;;5009044;28;20456;-66
2023/03/19 06:07:03;;;;;;;7.70;6.70;;;9.10;92.30;;;;;;5009656;28;20469;-66
2023/03/19 06:09:31;;;;;;;7.17;6.47;;;9.20;91.80;;;;;;5009313;28;20553;-66
2023/03/19 06:11:58;;;;;;;7.20;6.50;;;9.20;91.60;;;;;;5008855;28;20451;-66
2023/03/19 06:14:25;;;;;;;10.17;7.07;;;9.10;92.10;;;;;;5008309;28;20487;-66
2023/03/19 06:16:52;;;;;;;7.87;6.80;;;9.10;92.20;;;;;;5008417;28;20475;-66
2023/03/19 06:19:19;;;;;;;10.80;8.03;;;9.10;91.80;;;;;;5008565;28;20952;-66
2023/03/19 06:21:45;;;;;;;10.57;7.30;;;9.30;91.80;;;;;;5009326;28;20502;-66
2023/03/19 06:24:12;;;;;;;8.77;7.93;;;9.40;91.90;;;;;;5008540;28;20452;-66
2023/03/19 06:26:40;;;;;;;7.87;7.07;;;9.30;91.90;;;;;;5009342;28;20472;-66
2023/03/19 06:29:07;;;;;;;7.47;6.87;;;9.30;92.30;;;;;;5008966;28;20458;-66
2023/03/19 06:31:34;;;;;;;7.60;6.90;;;9.40;91.90;;;;;;5009098;28;20865;-66
2023/03/19 06:34:01;;;;;;;7.67;6.97;;;9.50;91.90;;;;;;5008519;28;20473;-67
2023/03/19 06:36:28;;;;;;;8.80;8.00;;;9.50;91.80;;;;;;5008584;28;20487;-66
2023/03/19 06:38:55;;;;;;;7.10;6.43;;;9.60;91.50;;;;;;5009107;28;20465;-66
2023/03/19 06:41:23;;;;;;;6.50;6.00;;;9.60;91.40;;;;;;5009054;28;20460;-66
2023/03/19 06:43:52;;;;;;;8.60;7.10;;;9.60;91.60;;;;;;5008313;28;20457;-66
2023/03/19 06:46:18;;;;;;;7.80;7.00;;;9.70;90.90;;;;;;5008985;28;20505;-66
2023/03/19 06:48:45;;;;;;;7.17;6.67;;;9.80;91.10;;;;;;5010385;28;20452;-65
2023/03/19 06:51:12;;;;;;;7.07;6.43;;;9.80;90.50;;;;;;5012142;28;20448;-66
2023/03/19 06:53:39;;;;;;;7.20;6.50;;;9.80;90.30;;;;;;5012834;28;20448;-66
2023/03/19 06:56:06;;;;;;;6.57;5.97;;;9.90;90.30;;;;;;5012332;28;20488;-65
2023/03/19 06:58:34;;;;;;;7.83;6.30;;;9.90;89.50;;;;;;5012647;28;20456;-67
2023/03/19 07:01:02;;;;;;;6.43;5.80;;;9.90;89.30;;;;;;5012300;28;20506;-66
2023/03/19 07:03:29;;;;;;;6.53;5.93;;;10.00;89.40;;;;;;5011715;28;20959;-66
2023/03/19 07:05:56;;;;;;;6.17;5.30;;;10.10;88.20;;;;;;5011984;28;20457;-66
2023/03/19 07:08:26;;;;;;;6.53;5.90;;;10.20;86.50;;;;;;5011627;28;20475;-66
2023/03/19 07:10:53;;;;;;;6.70;5.07;;;10.30;86.80;;;;;;5012608;28;20983;-65
2023/03/19 07:13:21;;;;;;;6.03;5.50;;;10.40;85.00;;;;;;5012411;28;20827;-65
2023/03/19 07:15:49;;;;;;;9.10;6.13;;;10.50;85.10;;;;;;5012495;28;20485;-66
2023/03/19 07:18:17;;;;;;;5.47;5.00;;;10.60;86.30;;;;;;5012467;28;20852;-66
2023/03/19 07:20:44;;;;;;;6.27;5.30;;;10.70;84.90;;;;;;5012478;28;20444;-65
2023/03/19 07:23:10;;;;;;;7.07;5.53;;;10.80;84.70;;;;;;5012145;28;20449;-65
2023/03/19 07:25:37;;;;;;;8.03;5.90;;;10.90;83.70;;;;;;5012142;28;20442;-66
2023/03/19 07:28:05;;;;;;;6.37;5.13;;;10.90;84.20;;;;;;5012306;28;20480;-66
2023/03/19 07:30:31;;;;;;;6.23;5.63;;;11.00;84.90;;;;;;5012056;28;20450;-66
2023/03/19 07:32:58;;;;;;;5.77;5.27;;;11.20;83.10;;;;;;5012008;28;20444;-65
2023/03/19 07:35:26;;;;;;;6.97;5.30;;;11.40;81.00;;;;;;5012229;28;20486;-65
2023/03/19 07:37:53;;;;;;;5.07;4.63;;;11.50;80.00;;;;;;5012159;28;20470;-64
2023/03/19 07:40:20;;;;;;;5.33;4.83;;;11.60;79.00;;;;;;5012359;28;21109;-65
2023/03/19 07:42:47;;;;;;;5.87;4.00;;;11.50;79.70;;;;;;5012030;28;20456;-66
2023/03/19 07:45:14;;;;;;;4.80;4.30;;;11.70;76.50;;;;;;5011979;28;20443;-64
2023/03/19 07:47:40;;;;;;;4.77;3.83;;;11.80;77.20;;;;;;5011636;28;20884;-64
2023/03/19 07:50:08;;;;;;;5.17;4.47;;;11.90;76.90;;;;;;5011476;28;20457;-66
2023/03/19 07:52:37;;;;;;;4.97;3.83;;;11.90;74.90;;;;;;5011365;28;20455;-69
2023/03/19 07:55:04;;;;;;;4.33;3.87;;;12.00;75.20;;;;;;5011518;28;20474;-66
2023/03/19 07:57:31;;;;;;;4.13;3.50;;;12.00;75.50;;;;;;5011330;28;20472;-66
2023/03/19 07:59:58;;;;;;;4.40;4.00;;;12.00;75.20;;;;;;5011176;28;20450;-66
2023/03/19 08:02:25;;;;;;;4.20;3.80;;;12.20;76.60;;;;;;5011267;28;20452;-65
2023/03/19 08:04:52;;;;;;;5.10;3.70;;;12.20;76.50;;;;;;5011004;28;20448;-67
2023/03/19 08:07:19;;;;;;;3.37;3.07;;;12.40;76.80;;;;;;5011182;28;20475;-66
2023/03/19 08:09:47;;;;;;;5.03;3.53;;;12.40;76.90;;;;;;5011226;28;20887;-66
2023/03/19 08:12:14;;;;;;;4.20;3.50;;;12.60;76.30;;;;;;5010888;28;20449;-68
2023/03/19 08:14:41;;;;;;;5.30;4.27;;;12.80;75.10;;;;;;5010991;28;20446;-67
2023/03/19 08:17:08;;;;;;;4.50;3.50;;;12.90;73.70;;;;;;5010896;28;20474;-66
2023/03/19 08:19:35;;;;;;;5.40;3.83;;;13.00;72.60;;;;;;5011248;28;20449;-67
2023/03/19 08:22:01;;;;;;;5.40;4.10;;;13.20;73.30;;;;;;5010786;28;20448;-67
2023/03/19 08:24:28;;;;;;;5.10;3.90;;;13.40;71.20;;;;;;5010930;28;20458;-70
2023/03/19 08:26:56;;;;;;;4.23;3.70;;;13.50;69.10;;;;;;5010726;28;20480;-67
2023/03/19 08:29:25;;;;;;;5.50;4.50;;;13.50;69.70;;;;;;5010456;28;20446;-67
2023/03/19 08:31:52;;;;;;;4.40;3.40;;;13.50;71.70;;;;;;5010857;28;20452;-65
2023/03/19 08:34:18;;;;;;;3.70;3.50;;;13.40;70.00;;;;;;5009964;28;20454;-66
2023/03/19 08:36:45;;;;;;;3.93;3.50;;;13.40;71.50;;;;;;5010616;28;21050;-67
2023/03/19 08:39:12;;;;;;;4.80;3.50;;;13.50;70.70;;;;;;5010542;28;21090;-67
2023/03/19 08:41:39;;;;;;;4.43;3.37;;;13.70;71.10;;;;;;5010507;28;20548;-66
2023/03/19 08:44:07;;;;;;;4.73;3.50;;;13.80;70.10;;;;;;5010147;28;20454;-66
2023/03/19 08:46:34;;;;;;;4.23;3.53;;;13.90;68.90;;;;;;5010400;28;20470;-66
2023/03/19 08:49:01;;;;;;;3.70;3.40;;;14.00;69.70;;;;;;5010346;28;20454;-67
2023/03/19 08:51:29;;;;;;;3.73;3.37;;;14.10;68.90;;;;;;5010571;28;20459;-67
2023/03/19 08:53:56;;;;;;;4.10;3.30;;;14.30;66.50;;;;;;5010329;28;20450;-67
2023/03/19 08:56:23;;;;;;;4.30;3.47;;;14.20;65.10;;;;;;5010568;28;20499;-67
2023/03/19 08:58:50;;;;;;;4.87;3.57;;;14.10;66.10;;;;;;5010253;28;20457;-67
2023/03/19 09:01:18;;;;;;;4.93;3.57;;;13.90;65.00;;;;;;5009534;28;20450;-67
2023/03/19 09:03:45;;;;;;;7.00;4.07;;;14.00;68.00;;;;;;5009831;28;21029;-66
2023/03/19 09:06:13;;;;;;;4.30;3.43;;;14.00;66.10;;;;;;5010641;28;20870;-67
2023/03/19 09:08:40;;;;;;;5.23;3.47;;;14.00;65.60;;;;;;5010284;28;20522;-67
2023/03/19 09:11:07;;;;;;;3.93;3.63;;;14.20;63.60;;;;;;5009741;28;20552;-67
2023/03/19 09:13:34;;;;;;;4.67;3.30;;;14.30;66.00;;;;;;5009990;28;20453;-67
2023/03/19 09:16:01;;;;;;;3.93;3.60;;;14.20;65.10;;;;;;5009820;28;21010;-68
2023/03/19 09:18:29;;;;;;;3.57;3.27;;;14.20;65.20;;;;;;5009411;28;20469;-67
2023/03/19 09:20:56;;;;;;;5.40;2.73;;;14.50;64.80;;;;;;5009789;28;20454;-67
2023/03/19 09:23:23;;;;;;;4.27;2.90;;;14.90;62.80;;;;;;5010061;28;20451;-67
2023/03/19 09:25:50;;;;;;;4.47;3.30;;;15.10;62.20;;;;;;5009849;28;20457;-68
2023/03/19 09:28:17;;;;;;;4.20;3.43;;;15.20;61.20;;;;;;5009860;28;20470;-67
2023/03/19 09:30:46;;;;;;;3.97;3.17;;;15.60;61.10;;;;;;5009988;28;20460;-67
2023/03/19 09:33:14;;;;;;;3.10;2.80;;;16.20;59.10;;;;;;5009302;28;21187;-67
2023/03/19 09:35:42;;;;;;;3.20;2.67;;;16.70;57.40;;;;;;5010162;28;20499;-67
2023/03/19 09:38:09;;;;;;;4.13;2.97;;;17.10;55.00;;;;;;5009990;28;20820;-65
2023/03/19 09:40:41;;;;;;;10.30;3.40;;;17.20;54.70;;;;;;5010227;28;20892;-67
2023/03/19 09:43:20;;;;;;;2.80;2.60;;;17.40;54.40;;;;;;5010504;28;20857;-68
2023/03/19 09:45:48;;;;;;;3.50;2.90;;;17.60;54.60;;;;;;5011378;28;20452;-67
2023/03/19 09:48:19;;;;;;;3.13;2.73;;;17.40;54.40;;;;;;5011023;28;21097;-68
2023/03/19 09:50:49;;;;;;;3.23;2.50;;;17.10;54.30;;;;;;5010292;28;20476;-66
2023/03/19 09:53:25;;;;;;;4.87;2.37;;;16.80;53.90;;;;;;5009632;28;21241;-66
2023/03/19 09:55:53;;;;;;;3.17;2.63;;;16.60;55.00;;;;;;5009801;28;20516;-67
2023/03/19 09:58:22;;;;;;;2.83;2.47;;;16.70;54.60;;;;;;5009470;28;21090;-67
2023/03/19 10:00:50;;;;;;;4.10;3.20;;;16.90;54.60;;;;;;5009762;28;20838;-68
2023/03/19 10:03:43;;;;;;;2.97;2.50;;;17.40;53.50;;;;;;5009805;28;20454;-67
2023/03/19 10:06:28;;;;;;;2.70;2.17;;;17.80;52.20;;;;;;5009488;28;20442;-67
2023/03/19 10:09:17;;;;;;;2.70;2.40;;;18.20;51.10;;;;;;5009866;28;21161;-67
2023/03/19 10:11:56;;;;;;;3.67;2.60;;;18.70;50.60;;;;;;5009535;28;20442;-66
2023/03/19 10:15:02;;;;;;;6.77;2.70;;;19.10;48.40;;;;;;5009470;28;20449;-67
2023/03/19 10:17:33;;;;;;;4.07;2.70;;;19.30;48.20;;;;;;5009348;28;20497;-67
2023/03/19 10:20:05;;;;;;;3.47;2.60;;;19.20;46.90;;;;;;5009727;28;20492;-67
2023/03/19 10:22:38;;;;;;;2.67;2.17;;;19.20;48.40;;;;;;5009200;28;21014;-68
2023/03/19 10:25:09;;;;;;;2.77;2.27;;;19.40;47.50;;;;;;5013055;28;20450;-66
2023/03/19 10:27:37;;;;;;;2.40;2.20;;;19.70;45.80;;;;;;5012999;28;20468;-67
2023/03/19 10:30:13;;;;;;;3.20;2.90;;;20.30;47.20;;;;;;5013278;28;20461;-68
2023/03/19 10:32:42;;;;;;;3.73;3.10;;;20.60;46.70;;;;;;5012934;28;20453;-68
2023/03/19 10:35:19;;;;;;;3.00;2.70;;;20.80;46.90;;;;;;5012947;28;20452;-68
2023/03/19 10:37:48;;;;;;;4.23;3.00;;;20.70;47.30;;;;;;5013087;28;20976;-66
2023/03/19 10:40:22;;;;;;;3.03;2.73;;;20.70;46.60;;;;;;5012841;28;20453;-67
2023/03/19 10:43:05;;;;;;;4.70;2.90;;;20.90;45.00;;;;;;5013249;28;20474;-66
2023/03/19 10:45:34;;;;;;;3.67;3.37;;;21.10;44.70;;;;;;5012141;28;21041;-65
2023/03/19 10:48:03;;;;;;;2.63;2.40;;;21.40;44.20;;;;;;5012112;28;20556;-66
2023/03/19 10:50:34;;;;;;;3.57;3.10;;;21.60;45.40;;;;;;5012252;28;20863;-66
2023/03/19 10:53:07;;;;;;;4.13;2.93;;;21.60;44.00;;;;;;5012459;28;20449;-68
2023/03/19 10:55:34;;;;;;;5.80;2.83;;;21.40;41.70;;;;;;5011727;28;20446;-67
2023/03/19 10:58:06;;;;;;;2.80;2.50;;;21.40;43.20;;;;;;5012686;28;20501;-67
2023/03/19 11:00:35;;;;;;;3.07;2.60;;;21.20;43.50;;;;;;5012523;28;20851;-67
2023/03/19 11:03:04;;;;;;;3.00;2.40;;;21.10;43.20;;;;;;5012147;28;20445;-67
2023/03/19 11:05:33;;;;;;;3.50;3.00;;;21.30;41.60;;;;;;5011857;28;20460;-67
2023/03/19 11:08:02;;;;;;;3.03;2.50;;;21.60;41.70;;;;;;5010135;28;20470;-67
2023/03/19 11:10:32;;;;;;;2.70;2.50;;;22.00;41.40;;;;;;5007848;28;20478;-67
2023/03/19 11:13:02;;;;;;;3.60;2.43;;;22.10;39.20;;;;;;5008677;28;20548;-67
2023/03/19 11:15:34;;;;;;;3.93;2.30;;;22.20;40.10;;;;;;5008796;28;20446;-67
2023/03/19 11:18:07;;;;;;;2.80;2.40;;;22.20;40.80;;;;;;5009067;28;20585;-67
2023/03/19 11:20:37;;;;;;;2.80;2.20;;;22.20;40.50;;;;;;5009087;28;20445;-67
2023/03/19 11:23:12;;;;;;;4.60;2.30;;;22.00;38.60;;;;;;5009163;28;20450;-67
2023/03/19 11:25:41;;;;;;;3.10;2.17;;;21.80;39.10;;;;;;5011944;28;20452;-68
2023/03/19 11:28:12;;;;;;;4.33;2.00;;;21.80;39.00;;;;;;5012142;28;21161;-67
2023/03/19 11:30:46;;;;;;;2.43;2.20;;;21.90;38.10;;;;;;5011936;28;20496;-67
2023/03/19 11:33:40;;;;;;;2.17;1.97;;;21.60;39.10;;;;;;5011513;28;20549;-67
2023/03/19 11:36:13;;;;;;;3.33;1.77;;;21.30;39.60;;;;;;5011364;28;21007;-66
2023/03/19 11:38:59;;;;;;;2.67;2.13;;;21.40;38.30;;;;;;5012184;28;20504;-67
2023/03/19 11:41:39;;;;;;;3.27;2.27;;;21.20;38.40;;;;;;5011832;28;20959;-66
2023/03/19 11:44:13;;;;;;;2.53;2.10;;;20.80;39.00;;;;;;5011562;28;20456;-66
2023/03/19 11:46:45;;;;;;;3.10;1.90;;;20.70;41.40;;;;;;5011940;28;20842;-66
2023/03/19 11:49:33;;;;;;;2.17;1.63;;;21.20;39.60;;;;;;5012042;28;20449;-66
2023/03/19 11:52:08;;;;;;;3.27;1.97;;;22.60;38.90;;;;;;5007839;28;20477;-67
2023/03/19 11:54:43;;;;;;;3.33;2.33;;;23.40;36.80;;;;;;5011919;28;20444;-67
2023/03/19 11:57:18;;;;;;;2.80;2.30;;;23.10;36.90;;;;;;5011638;28;20547;-67
2023/03/19 12:00:00;;;;;;;2.07;1.70;;;23.20;36.70;;;;;;5011695;28;20457;-68
2023/03/19 12:02:45;;;;;;;3.30;2.20;;;22.90;36.80;;;;;;5011519;28;20453;-67
2023/03/19 12:05:28;;;;;;;2.27;2.07;;;22.40;37.70;;;;;;5011601;28;20450;-66
2023/03/19 12:08:06;;;;;;;4.60;2.30;;;21.70;38.00;;;;;;5011312;28;20968;-67
2023/03/19 12:10:44;;;;;;;3.70;2.90;;;21.20;38.40;;;;;;5011354;28;20450;-66
2023/03/19 12:13:27;;;;;;;4.50;2.20;;;20.40;39.90;;;;;;5010703;28;20473;-67
2023/03/19 12:16:00;;;;;;;2.20;2.00;;;19.90;42.00;;;;;;5011310;28;20850;-67
2023/03/19 12:18:53;;;;;;;3.90;2.37;;;20.20;42.40;;;;;;5011099;28;21043;-66
2023/03/19 12:21:26;;;;;;;3.50;2.17;;;21.80;40.20;;;;;;5011050;28;20453;-67
2023/03/19 12:24:03;;;;;;;2.33;2.07;;;23.30;36.60;;;;;;5010929;28;20458;-66
2023/03/19 12:26:39;;;;;;;3.00;2.00;;;23.70;34.60;;;;;;5010676;28;20472;-66
2023/03/19 12:29:19;;;;;;;3.40;2.47;;;22.90;35.60;;;;;;5010916;28;20450;-68
2023/03/19 12:32:25;;;;;;;5.03;2.20;;;22.70;36.40;;;;;;5010641;28;20457;-67
2023/03/19 12:34:56;;;;;;;2.90;2.00;;;21.80;36.20;;;;;;4990833;28;20456;-67
2023/03/19 12:37:29;;;;;;;3.40;1.63;;;20.70;38.10;;;;;;5010825;28;20486;-67
2023/03/19 12:40:14;;;;;;;2.30;2.10;;;20.50;39.70;;;;;;5010941;28;20537;-67
2023/03/19 12:42:41;;;;;;;2.13;1.97;;;20.80;39.50;;;;;;5010352;28;20477;-66
2023/03/19 12:45:25;;;;;;;2.23;2.03;;;21.40;39.10;;;;;;5010921;28;20523;-66
2023/03/19 12:47:58;;;;;;;4.93;2.43;;;20.50;39.40;;;;;;5009945;28;20545;-66
2023/03/19 12:50:26;;;;;;;2.53;2.00;;;19.60;40.80;;;;;;5010508;28;20441;-67
2023/03/19 12:52:57;;;;;;;3.13;2.33;;;18.80;41.80;;;;;;5010403;28;20437;-66
2023/03/19 12:55:35;;;;;;;3.20;2.47;;;18.50;43.20;;;;;;5010423;28;20863;-66
2023/03/19 12:58:06;;;;;;;2.30;2.10;;;17.80;46.90;;;;;;5010416;28;21007;-68